sensor_id;sensor_type;location;lat;lon;timestamp;P1;durP1;ratioP1;P2;durP2;ratioP2
51525;SDS011;37611;51.794;21.590;2024-01-16T00:03:59;3.40;;;1.80;;
51525;SDS011;37611;51.794;21.590;2024-01-16T00:08:01;3.40;;;1.60;;
51525;SDS011;37611;51.794;21.590;2024-01-16T00:12:03;2.70;;;1.80;;
51525;SDS011;37611;51.794;21.590;2024-01-16T00:16:05;1.80;;;1.30;;
51525;SDS011;37611;51.794;21.590;2024-01-16T00:20:07;3.20;;;1.20;;
51525;SDS011;37611;51.794;21.590;2024-01-16T00:24:10;3.70;;;1.80;;
51525;SDS011;37611;51.794;21.590;2024-01-16T00:28:11;2.30;;;1.30;;
51525;SDS011;37611;51.794;21.590;2024-01-16T00:32:13;2.20;;;1.20;;
51525;SDS011;37611;51.794;21.590;2024-01-16T00:36:18;1.80;;;1.00;;
51525;SDS011;37611;51.794;21.590;2024-01-16T00:40:20;1.60;;;1.10;;
51525;SDS011;37611;51.794;21.590;2024-01-16T00:44:22;3.20;;;1.30;;
51525;SDS011;37611;51.794;21.590;2024-01-16T00:48:23;2.40;;;0.90;;
51525;SDS011;37611;51.794;21.590;2024-01-16T00:52:26;2.20;;;1.00;;
51525;SDS011;37611;51.794;21.590;2024-01-16T00:56:28;3.90;;;0.80;;
51525;SDS011;37611;51.794;21.590;2024-01-16T01:00:30;2.40;;;1.00;;
51525;SDS011;37611;51.794;21.590;2024-01-16T01:04:33;1.90;;;1.10;;
51525;SDS011;37611;51.794;21.590;2024-01-16T01:08:35;3.40;;;1.00;;
51525;SDS011;37611;51.794;21.590;2024-01-16T01:12:37;0.80;;;0.70;;
51525;SDS011;37611;51.794;21.590;2024-01-16T01:16:39;2.10;;;1.10;;
51525;SDS011;37611;51.794;21.590;2024-01-16T01:20:40;3.40;;;0.90;;
51525;SDS011;37611;51.794;21.590;2024-01-16T01:24:42;1.90;;;0.80;;
51525;SDS011;37611;51.794;21.590;2024-01-16T01:28:44;1.80;;;1.20;;
51525;SDS011;37611;51.794;21.590;2024-01-16T01:32:46;1.50;;;0.90;;
51525;SDS011;37611;51.794;21.590;2024-01-16T01:36:48;1.50;;;0.90;;
51525;SDS011;37611;51.794;21.590;2024-01-16T01:40:49;1.00;;;0.70;;
51525;SDS011;37611;51.794;21.590;2024-01-16T01:44:51;1.40;;;0.70;;
51525;SDS011;37611;51.794;21.590;2024-01-16T01:48:53;1.20;;;0.80;;
51525;SDS011;37611;51.794;21.590;2024-01-16T01:52:55;1.20;;;0.80;;
51525;SDS011;37611;51.794;21.590;2024-01-16T01:56:57;1.20;;;0.70;;
51525;SDS011;37611;51.794;21.590;2024-01-16T02:00:59;1.70;;;0.90;;
51525;SDS011;37611;51.794;21.590;2024-01-16T02:05:07;2.60;;;1.20;;
51525;SDS011;37611;51.794;21.590;2024-01-16T02:09:09;1.90;;;1.00;;
51525;SDS011;37611;51.794;21.590;2024-01-16T02:13:11;1.60;;;1.20;;
51525;SDS011;37611;51.794;21.590;2024-01-16T02:17:12;2.80;;;1.40;;
51525;SDS011;37611;51.794;21.590;2024-01-16T02:21:15;1.50;;;1.10;;
51525;SDS011;37611;51.794;21.590;2024-01-16T02:25:21;2.70;;;1.50;;
51525;SDS011;37611;51.794;21.590;2024-01-16T02:29:22;1.40;;;1.10;;
51525;SDS011;37611;51.794;21.590;2024-01-16T02:33:24;3.00;;;1.20;;
51525;SDS011;37611;51.794;21.590;2024-01-16T02:37:26;1.50;;;1.00;;
51525;SDS011;37611;51.794;21.590;2024-01-16T02:41:28;1.60;;;1.20;;
51525;SDS011;37611;51.794;21.590;2024-01-16T02:45:30;2.30;;;1.60;;
51525;SDS011;37611;51.794;21.590;2024-01-16T02:49:31;1.80;;;1.30;;
51525;SDS011;37611;51.794;21.590;2024-01-16T02:53:34;2.20;;;1.50;;
51525;SDS011;37611;51.794;21.590;2024-01-16T02:57:36;2.60;;;1.40;;
51525;SDS011;37611;51.794;21.590;2024-01-16T03:01:38;3.10;;;1.60;;
51525;SDS011;37611;51.794;21.590;2024-01-16T03:05:39;2.70;;;1.50;;
51525;SDS011;37611;51.794;21.590;2024-01-16T03:09:41;1.90;;;1.40;;
51525;SDS011;37611;51.794;21.590;2024-01-16T03:13:43;1.50;;;1.30;;
51525;SDS011;37611;51.794;21.590;2024-01-16T03:17:45;2.40;;;1.30;;
51525;SDS011;37611;51.794;21.590;2024-01-16T03:21:47;1.90;;;1.30;;
51525;SDS011;37611;51.794;21.590;2024-01-16T03:25:49;2.20;;;1.50;;
51525;SDS011;37611;51.794;21.590;2024-01-16T03:29:51;2.90;;;1.50;;
51525;SDS011;37611;51.794;21.590;2024-01-16T03:33:53;2.80;;;1.70;;
51525;SDS011;37611;51.794;21.590;2024-01-16T03:37:55;2.90;;;1.30;;
51525;SDS011;37611;51.794;21.590;2024-01-16T03:41:57;2.00;;;1.60;;
51525;SDS011;37611;51.794;21.590;2024-01-16T03:45:59;3.00;;;1.70;;
51525;SDS011;37611;51.794;21.590;2024-01-16T03:50:01;2.80;;;1.60;;
51525;SDS011;37611;51.794;21.590;2024-01-16T03:54:02;1.90;;;1.60;;
51525;SDS011;37611;51.794;21.590;2024-01-16T03:58:05;2.50;;;1.70;;
51525;SDS011;37611;51.794;21.590;2024-01-16T04:02:08;3.20;;;1.30;;
51525;SDS011;37611;51.794;21.590;2024-01-16T04:06:16;3.70;;;1.70;;
51525;SDS011;37611;51.794;21.590;2024-01-16T04:10:18;2.60;;;1.60;;
51525;SDS011;37611;51.794;21.590;2024-01-16T04:14:20;2.80;;;1.50;;
51525;SDS011;37611;51.794;21.590;2024-01-16T04:18:22;2.10;;;1.50;;
51525;SDS011;37611;51.794;21.590;2024-01-16T04:22:24;3.50;;;1.30;;
51525;SDS011;37611;51.794;21.590;2024-01-16T04:26:26;2.10;;;1.50;;
51525;SDS011;37611;51.794;21.590;2024-01-16T04:30:28;2.90;;;1.50;;
51525;SDS011;37611;51.794;21.590;2024-01-16T04:34:30;5.00;;;1.40;;
51525;SDS011;37611;51.794;21.590;2024-01-16T04:38:32;2.10;;;1.30;;
51525;SDS011;37611;51.794;21.590;2024-01-16T04:42:34;1.70;;;1.40;;
51525;SDS011;37611;51.794;21.590;2024-01-16T04:46:36;2.10;;;1.40;;
51525;SDS011;37611;51.794;21.590;2024-01-16T04:50:37;3.20;;;1.60;;
51525;SDS011;37611;51.794;21.590;2024-01-16T04:54:39;3.80;;;1.80;;
51525;SDS011;37611;51.794;21.590;2024-01-16T04:58:41;2.80;;;1.60;;
51525;SDS011;37611;51.794;21.590;2024-01-16T05:02:43;4.00;;;1.80;;
51525;SDS011;37611;51.794;21.590;2024-01-16T05:06:44;3.00;;;1.50;;
51525;SDS011;37611;51.794;21.590;2024-01-16T05:10:46;2.20;;;1.50;;
51525;SDS011;37611;51.794;21.590;2024-01-16T05:14:48;2.00;;;1.40;;
51525;SDS011;37611;51.794;21.590;2024-01-16T05:18:50;3.50;;;1.80;;
51525;SDS011;37611;51.794;21.590;2024-01-16T05:22:52;5.40;;;1.70;;
51525;SDS011;37611;51.794;21.590;2024-01-16T05:26:54;2.30;;;1.70;;
51525;SDS011;37611;51.794;21.590;2024-01-16T05:30:55;2.40;;;1.70;;
51525;SDS011;37611;51.794;21.590;2024-01-16T05:34:57;3.20;;;1.60;;
51525;SDS011;37611;51.794;21.590;2024-01-16T05:38:59;2.50;;;1.70;;
51525;SDS011;37611;51.794;21.590;2024-01-16T05:43:01;2.20;;;1.60;;
51525;SDS011;37611;51.794;21.590;2024-01-16T05:47:03;3.10;;;1.90;;
51525;SDS011;37611;51.794;21.590;2024-01-16T05:51:06;3.50;;;1.80;;
51525;SDS011;37611;51.794;21.590;2024-01-16T05:55:07;3.80;;;1.80;;
51525;SDS011;37611;51.794;21.590;2024-01-16T05:59:09;3.10;;;1.80;;
51525;SDS011;37611;51.794;21.590;2024-01-16T06:03:11;7.80;;;4.80;;
51525;SDS011;37611;51.794;21.590;2024-01-16T06:07:13;14.90;;;9.70;;
51525;SDS011;37611;51.794;21.590;2024-01-16T06:11:15;8.10;;;6.30;;
51525;SDS011;37611;51.794;21.590;2024-01-16T06:15:16;3.40;;;2.80;;
51525;SDS011;37611;51.794;21.590;2024-01-16T06:19:18;8.90;;;5.40;;
51525;SDS011;37611;51.794;21.590;2024-01-16T06:23:20;5.00;;;2.20;;
51525;SDS011;37611;51.794;21.590;2024-01-16T06:27:22;5.20;;;2.70;;
51525;SDS011;37611;51.794;21.590;2024-01-16T06:31:24;8.50;;;3.20;;
51525;SDS011;37611;51.794;21.590;2024-01-16T06:35:27;7.10;;;2.50;;
51525;SDS011;37611;51.794;21.590;2024-01-16T06:39:29;5.20;;;2.30;;
51525;SDS011;37611;51.794;21.590;2024-01-16T06:43:31;4.80;;;2.40;;
51525;SDS011;37611;51.794;21.590;2024-01-16T06:47:33;4.10;;;2.20;;
51525;SDS011;37611;51.794;21.590;2024-01-16T06:51:34;4.40;;;2.60;;
51525;SDS011;37611;51.794;21.590;2024-01-16T06:55:36;4.60;;;2.40;;
51525;SDS011;37611;51.794;21.590;2024-01-16T06:59:38;5.90;;;2.50;;
51525;SDS011;37611;51.794;21.590;2024-01-16T07:03:40;4.50;;;2.20;;
51525;SDS011;37611;51.794;21.590;2024-01-16T07:07:42;3.90;;;2.30;;
51525;SDS011;37611;51.794;21.590;2024-01-16T07:11:44;3.60;;;2.40;;
51525;SDS011;37611;51.794;21.590;2024-01-16T07:15:45;4.70;;;2.70;;
51525;SDS011;37611;51.794;21.590;2024-01-16T07:19:47;4.50;;;2.70;;
51525;SDS011;37611;51.794;21.590;2024-01-16T07:23:49;5.40;;;3.40;;
51525;SDS011;37611;51.794;21.590;2024-01-16T07:27:51;5.40;;;2.70;;
51525;SDS011;37611;51.794;21.590;2024-01-16T07:31:53;5.00;;;2.80;;
51525;SDS011;37611;51.794;21.590;2024-01-16T07:35:55;4.60;;;3.20;;
51525;SDS011;37611;51.794;21.590;2024-01-16T07:39:57;7.20;;;3.80;;
51525;SDS011;37611;51.794;21.590;2024-01-16T07:43:58;4.60;;;2.80;;
51525;SDS011;37611;51.794;21.590;2024-01-16T07:48:00;4.30;;;3.00;;
51525;SDS011;37611;51.794;21.590;2024-01-16T07:52:02;8.20;;;3.90;;
51525;SDS011;37611;51.794;21.590;2024-01-16T07:56:04;6.40;;;4.20;;
51525;SDS011;37611;51.794;21.590;2024-01-16T08:00:07;10.30;;;5.80;;
51525;SDS011;37611;51.794;21.590;2024-01-16T08:04:13;12.30;;;5.90;;
51525;SDS011;37611;51.794;21.590;2024-01-16T08:08:15;12.80;;;7.10;;
51525;SDS011;37611;51.794;21.590;2024-01-16T08:12:17;8.20;;;4.70;;
51525;SDS011;37611;51.794;21.590;2024-01-16T08:16:18;10.00;;;5.70;;
51525;SDS011;37611;51.794;21.590;2024-01-16T08:20:20;8.30;;;4.60;;
51525;SDS011;37611;51.794;21.590;2024-01-16T08:24:22;8.00;;;4.20;;
51525;SDS011;37611;51.794;21.590;2024-01-16T08:28:24;6.90;;;4.00;;
51525;SDS011;37611;51.794;21.590;2024-01-16T08:32:26;14.10;;;6.80;;
51525;SDS011;37611;51.794;21.590;2024-01-16T08:36:28;29.70;;;13.70;;
51525;SDS011;37611;51.794;21.590;2024-01-16T08:40:30;9.20;;;4.90;;
51525;SDS011;37611;51.794;21.590;2024-01-16T08:44:32;9.90;;;4.10;;
51525;SDS011;37611;51.794;21.590;2024-01-16T08:48:33;5.70;;;3.90;;
51525;SDS011;37611;51.794;21.590;2024-01-16T08:52:35;7.00;;;4.10;;
51525;SDS011;37611;51.794;21.590;2024-01-16T08:56:37;14.20;;;6.10;;
51525;SDS011;37611;51.794;21.590;2024-01-16T09:00:39;44.60;;;24.20;;
51525;SDS011;37611;51.794;21.590;2024-01-16T09:04:41;15.00;;;8.90;;
51525;SDS011;37611;51.794;21.590;2024-01-16T09:08:43;24.50;;;17.10;;
51525;SDS011;37611;51.794;21.590;2024-01-16T09:12:45;14.60;;;10.60;;
51525;SDS011;37611;51.794;21.590;2024-01-16T09:16:47;9.50;;;5.40;;
51525;SDS011;37611;51.794;21.590;2024-01-16T09:20:49;5.80;;;4.00;;
51525;SDS011;37611;51.794;21.590;2024-01-16T09:24:51;6.20;;;3.60;;
51525;SDS011;37611;51.794;21.590;2024-01-16T09:28:53;10.50;;;7.60;;
51525;SDS011;37611;51.794;21.590;2024-01-16T09:32:55;5.80;;;3.50;;
51525;SDS011;37611;51.794;21.590;2024-01-16T09:36:56;5.00;;;3.40;;
51525;SDS011;37611;51.794;21.590;2024-01-16T09:41:02;7.60;;;4.20;;
51525;SDS011;37611;51.794;21.590;2024-01-16T09:45:04;11.10;;;5.80;;
51525;SDS011;37611;51.794;21.590;2024-01-16T09:49:06;7.60;;;3.90;;
51525;SDS011;37611;51.794;21.590;2024-01-16T09:53:09;8.00;;;4.30;;
51525;SDS011;37611;51.794;21.590;2024-01-16T09:57:12;11.90;;;6.20;;
51525;SDS011;37611;51.794;21.590;2024-01-16T10:01:15;6.80;;;4.10;;
51525;SDS011;37611;51.794;21.590;2024-01-16T10:05:18;8.50;;;4.40;;
51525;SDS011;37611;51.794;21.590;2024-01-16T10:09:19;8.70;;;5.10;;
51525;SDS011;37611;51.794;21.590;2024-01-16T10:13:21;8.30;;;4.80;;
51525;SDS011;37611;51.794;21.590;2024-01-16T10:17:34;10.30;;;6.20;;
51525;SDS011;37611;51.794;21.590;2024-01-16T10:21:40;8.50;;;4.00;;
51525;SDS011;37611;51.794;21.590;2024-01-16T10:25:42;5.50;;;3.00;;
51525;SDS011;37611;51.794;21.590;2024-01-16T10:29:56;9.90;;;5.30;;
51525;SDS011;37611;51.794;21.590;2024-01-16T10:33:59;7.00;;;3.00;;
51525;SDS011;37611;51.794;21.590;2024-01-16T10:38:01;6.60;;;4.70;;
51525;SDS011;37611;51.794;21.590;2024-01-16T10:42:03;9.10;;;7.80;;
51525;SDS011;37611;51.794;21.590;2024-01-16T10:46:15;7.50;;;4.10;;
51525;SDS011;37611;51.794;21.590;2024-01-16T10:50:18;15.70;;;13.80;;
51525;SDS011;37611;51.794;21.590;2024-01-16T10:54:20;4.70;;;3.90;;
51525;SDS011;37611;51.794;21.590;2024-01-16T10:58:23;6.10;;;4.00;;
51525;SDS011;37611;51.794;21.590;2024-01-16T11:02:32;12.80;;;7.00;;
51525;SDS011;37611;51.794;21.590;2024-01-16T11:06:51;17.80;;;10.20;;
51525;SDS011;37611;51.794;21.590;2024-01-16T11:10:54;15.80;;;11.60;;
51525;SDS011;37611;51.794;21.590;2024-01-16T11:14:56;7.10;;;3.40;;
51525;SDS011;37611;51.794;21.590;2024-01-16T11:19:09;12.30;;;7.70;;
51525;SDS011;37611;51.794;21.590;2024-01-16T11:23:11;11.20;;;9.30;;
51525;SDS011;37611;51.794;21.590;2024-01-16T11:27:22;13.10;;;7.50;;
51525;SDS011;37611;51.794;21.590;2024-01-16T11:31:34;8.00;;;5.40;;
51525;SDS011;37611;51.794;21.590;2024-01-16T11:35:37;12.90;;;11.00;;
51525;SDS011;37611;51.794;21.590;2024-01-16T11:39:40;11.40;;;7.30;;
51525;SDS011;37611;51.794;21.590;2024-01-16T11:43:42;8.50;;;6.00;;
51525;SDS011;37611;51.794;21.590;2024-01-16T11:47:44;11.80;;;7.10;;
51525;SDS011;37611;51.794;21.590;2024-01-16T11:51:46;8.40;;;4.40;;
51525;SDS011;37611;51.794;21.590;2024-01-16T12:00:22;4.70;;;3.10;;
51525;SDS011;37611;51.794;21.590;2024-01-16T12:04:30;5.50;;;3.60;;
51525;SDS011;37611;51.794;21.590;2024-01-16T12:08:31;6.90;;;3.70;;
51525;SDS011;37611;51.794;21.590;2024-01-16T12:12:33;6.00;;;4.50;;
51525;SDS011;37611;51.794;21.590;2024-01-16T12:16:36;3.50;;;2.60;;
51525;SDS011;37611;51.794;21.590;2024-01-16T12:20:39;67.70;;;36.10;;
51525;SDS011;37611;51.794;21.590;2024-01-16T12:24:41;20.90;;;14.70;;
51525;SDS011;37611;51.794;21.590;2024-01-16T12:28:43;9.80;;;6.80;;
51525;SDS011;37611;51.794;21.590;2024-01-16T12:32:45;12.10;;;7.00;;
51525;SDS011;37611;51.794;21.590;2024-01-16T12:36:46;9.10;;;5.00;;
51525;SDS011;37611;51.794;21.590;2024-01-16T12:40:49;9.40;;;6.60;;
51525;SDS011;37611;51.794;21.590;2024-01-16T12:44:52;7.30;;;5.70;;
51525;SDS011;37611;51.794;21.590;2024-01-16T12:49:00;12.70;;;10.30;;
51525;SDS011;37611;51.794;21.590;2024-01-16T12:53:06;11.00;;;7.30;;
51525;SDS011;37611;51.794;21.590;2024-01-16T12:57:10;6.90;;;4.50;;
51525;SDS011;37611;51.794;21.590;2024-01-16T13:05:23;4.80;;;4.20;;
51525;SDS011;37611;51.794;21.590;2024-01-16T13:09:24;8.60;;;5.60;;
51525;SDS011;37611;51.794;21.590;2024-01-16T13:13:27;9.40;;;8.40;;
51525;SDS011;37611;51.794;21.590;2024-01-16T13:17:29;20.90;;;13.90;;
51525;SDS011;37611;51.794;21.590;2024-01-16T13:21:31;9.10;;;8.20;;
51525;SDS011;37611;51.794;21.590;2024-01-16T13:25:33;11.00;;;7.30;;
51525;SDS011;37611;51.794;21.590;2024-01-16T13:29:35;5.20;;;3.30;;
51525;SDS011;37611;51.794;21.590;2024-01-16T13:33:40;5.80;;;3.90;;
51525;SDS011;37611;51.794;21.590;2024-01-16T13:37:45;6.60;;;3.80;;
51525;SDS011;37611;51.794;21.590;2024-01-16T13:41:48;14.30;;;9.00;;
51525;SDS011;37611;51.794;21.590;2024-01-16T13:45:49;13.50;;;9.30;;
51525;SDS011;37611;51.794;21.590;2024-01-16T13:49:51;9.70;;;6.10;;
51525;SDS011;37611;51.794;21.590;2024-01-16T13:53:53;6.20;;;4.00;;
51525;SDS011;37611;51.794;21.590;2024-01-16T13:57:55;26.70;;;19.40;;
51525;SDS011;37611;51.794;21.590;2024-01-16T14:01:57;6.30;;;4.50;;
51525;SDS011;37611;51.794;21.590;2024-01-16T14:05:58;13.00;;;7.10;;
51525;SDS011;37611;51.794;21.590;2024-01-16T14:10:01;8.00;;;5.50;;
51525;SDS011;37611;51.794;21.590;2024-01-16T14:14:02;26.90;;;15.70;;
51525;SDS011;37611;51.794;21.590;2024-01-16T14:18:07;23.40;;;15.00;;
51525;SDS011;37611;51.794;21.590;2024-01-16T14:22:10;12.40;;;7.20;;
51525;SDS011;37611;51.794;21.590;2024-01-16T14:26:12;60.20;;;33.10;;
51525;SDS011;37611;51.794;21.590;2024-01-16T14:30:14;8.80;;;6.10;;
51525;SDS011;37611;51.794;21.590;2024-01-16T14:34:17;7.70;;;5.20;;
51525;SDS011;37611;51.794;21.590;2024-01-16T14:38:19;6.30;;;5.40;;
51525;SDS011;37611;51.794;21.590;2024-01-16T14:42:20;10.20;;;6.60;;
51525;SDS011;37611;51.794;21.590;2024-01-16T14:46:24;135.20;;;99.90;;
51525;SDS011;37611;51.794;21.590;2024-01-16T14:50:26;47.00;;;32.20;;
51525;SDS011;37611;51.794;21.590;2024-01-16T14:54:28;46.90;;;21.90;;
51525;SDS011;37611;51.794;21.590;2024-01-16T14:58:30;42.20;;;19.90;;
51525;SDS011;37611;51.794;21.590;2024-01-16T15:02:33;63.30;;;29.50;;
51525;SDS011;37611;51.794;21.590;2024-01-16T15:06:35;32.90;;;15.20;;
51525;SDS011;37611;51.794;21.590;2024-01-16T15:10:37;27.00;;;13.30;;
51525;SDS011;37611;51.794;21.590;2024-01-16T15:14:39;54.20;;;24.90;;
51525;SDS011;37611;51.794;21.590;2024-01-16T15:18:41;82.40;;;38.30;;
51525;SDS011;37611;51.794;21.590;2024-01-16T15:22:44;68.40;;;32.60;;
51525;SDS011;37611;51.794;21.590;2024-01-16T15:26:47;60.60;;;34.50;;
51525;SDS011;37611;51.794;21.590;2024-01-16T15:30:48;43.20;;;26.00;;
51525;SDS011;37611;51.794;21.590;2024-01-16T15:34:50;35.80;;;20.20;;
51525;SDS011;37611;51.794;21.590;2024-01-16T15:38:52;44.40;;;24.30;;
51525;SDS011;37611;51.794;21.590;2024-01-16T15:42:54;51.80;;;29.70;;
51525;SDS011;37611;51.794;21.590;2024-01-16T15:47:01;64.90;;;35.40;;
51525;SDS011;37611;51.794;21.590;2024-01-16T15:51:04;38.60;;;19.90;;
51525;SDS011;37611;51.794;21.590;2024-01-16T15:55:07;35.30;;;18.50;;
51525;SDS011;37611;51.794;21.590;2024-01-16T15:59:10;34.00;;;16.40;;
51525;SDS011;37611;51.794;21.590;2024-01-16T16:03:12;30.80;;;14.20;;
51525;SDS011;37611;51.794;21.590;2024-01-16T16:07:14;202.60;;;62.30;;
51525;SDS011;37611;51.794;21.590;2024-01-16T16:11:16;148.40;;;57.30;;
51525;SDS011;37611;51.794;21.590;2024-01-16T16:15:18;145.70;;;51.70;;
51525;SDS011;37611;51.794;21.590;2024-01-16T16:19:19;82.10;;;30.20;;
51525;SDS011;37611;51.794;21.590;2024-01-16T16:23:21;46.10;;;17.40;;
51525;SDS011;37611;51.794;21.590;2024-01-16T16:27:24;53.60;;;21.40;;
51525;SDS011;37611;51.794;21.590;2024-01-16T16:31:27;52.30;;;23.60;;
51525;SDS011;37611;51.794;21.590;2024-01-16T16:35:29;26.60;;;14.30;;
51525;SDS011;37611;51.794;21.590;2024-01-16T16:39:31;25.90;;;14.10;;
51525;SDS011;37611;51.794;21.590;2024-01-16T16:43:33;43.00;;;20.20;;
51525;SDS011;37611;51.794;21.590;2024-01-16T16:47:36;51.60;;;27.00;;
51525;SDS011;37611;51.794;21.590;2024-01-16T16:51:37;19.30;;;10.40;;
51525;SDS011;37611;51.794;21.590;2024-01-16T16:55:43;26.30;;;13.80;;
51525;SDS011;37611;51.794;21.590;2024-01-16T16:59:45;139.40;;;43.30;;
51525;SDS011;37611;51.794;21.590;2024-01-16T17:03:47;114.90;;;38.20;;
51525;SDS011;37611;51.794;21.590;2024-01-16T17:07:53;224.80;;;71.90;;
51525;SDS011;37611;51.794;21.590;2024-01-16T17:11:55;393.70;;;140.40;;
51525;SDS011;37611;51.794;21.590;2024-01-16T17:15:57;224.00;;;78.60;;
51525;SDS011;37611;51.794;21.590;2024-01-16T17:20:00;399.60;;;150.70;;
51525;SDS011;37611;51.794;21.590;2024-01-16T17:24:02;326.90;;;146.50;;
51525;SDS011;37611;51.794;21.590;2024-01-16T17:28:05;347.40;;;164.70;;
51525;SDS011;37611;51.794;21.590;2024-01-16T17:32:06;334.10;;;171.20;;
51525;SDS011;37611;51.794;21.590;2024-01-16T17:36:09;411.40;;;188.20;;
51525;SDS011;37611;51.794;21.590;2024-01-16T17:40:14;463.90;;;214.00;;
51525;SDS011;37611;51.794;21.590;2024-01-16T17:44:17;468.70;;;221.90;;
51525;SDS011;37611;51.794;21.590;2024-01-16T17:48:20;393.30;;;189.80;;
51525;SDS011;37611;51.794;21.590;2024-01-16T17:52:22;453.70;;;221.50;;
51525;SDS011;37611;51.794;21.590;2024-01-16T17:56:23;464.30;;;236.70;;
51525;SDS011;37611;51.794;21.590;2024-01-16T18:00:27;473.00;;;255.60;;
51525;SDS011;37611;51.794;21.590;2024-01-16T18:04:33;478.80;;;255.30;;
51525;SDS011;37611;51.794;21.590;2024-01-16T18:08:35;525.70;;;287.40;;
51525;SDS011;37611;51.794;21.590;2024-01-16T18:12:40;514.80;;;277.60;;
51525;SDS011;37611;51.794;21.590;2024-01-16T18:16:43;501.50;;;269.00;;
51525;SDS011;37611;51.794;21.590;2024-01-16T18:20:45;507.30;;;272.90;;
51525;SDS011;37611;51.794;21.590;2024-01-16T18:24:47;488.40;;;257.80;;
51525;SDS011;37611;51.794;21.590;2024-01-16T18:28:48;490.00;;;262.30;;
51525;SDS011;37611;51.794;21.590;2024-01-16T18:32:50;479.80;;;252.30;;
51525;SDS011;37611;51.794;21.590;2024-01-16T18:36:53;477.90;;;259.70;;
51525;SDS011;37611;51.794;21.590;2024-01-16T18:40:55;505.40;;;272.50;;
51525;SDS011;37611;51.794;21.590;2024-01-16T18:45:00;518.40;;;269.60;;
51525;SDS011;37611;51.794;21.590;2024-01-16T18:49:02;507.90;;;265.10;;
51525;SDS011;37611;51.794;21.590;2024-01-16T18:53:04;479.40;;;252.80;;
51525;SDS011;37611;51.794;21.590;2024-01-16T18:57:06;500.30;;;271.10;;
51525;SDS011;37611;51.794;21.590;2024-01-16T19:01:11;512.80;;;271.00;;
51525;SDS011;37611;51.794;21.590;2024-01-16T19:05:14;545.00;;;288.10;;
51525;SDS011;37611;51.794;21.590;2024-01-16T19:09:17;543.60;;;288.10;;
51525;SDS011;37611;51.794;21.590;2024-01-16T19:13:19;676.20;;;355.00;;
51525;SDS011;37611;51.794;21.590;2024-01-16T19:17:21;720.20;;;383.50;;
51525;SDS011;37611;51.794;21.590;2024-01-16T19:21:23;661.40;;;349.90;;
51525;SDS011;37611;51.794;21.590;2024-01-16T19:25:25;726.10;;;391.90;;
51525;SDS011;37611;51.794;21.590;2024-01-16T19:29:27;736.10;;;387.50;;
51525;SDS011;37611;51.794;21.590;2024-01-16T19:33:29;686.70;;;377.20;;
51525;SDS011;37611;51.794;21.590;2024-01-16T19:37:32;670.90;;;361.00;;
51525;SDS011;37611;51.794;21.590;2024-01-16T19:41:34;608.90;;;315.30;;
51525;SDS011;37611;51.794;21.590;2024-01-16T19:45:38;532.40;;;282.90;;
51525;SDS011;37611;51.794;21.590;2024-01-16T19:49:40;380.00;;;191.70;;
51525;SDS011;37611;51.794;21.590;2024-01-16T19:53:41;395.10;;;190.00;;
51525;SDS011;37611;51.794;21.590;2024-01-16T19:57:43;392.90;;;192.40;;
51525;SDS011;37611;51.794;21.590;2024-01-16T20:01:45;378.10;;;185.90;;
51525;SDS011;37611;51.794;21.590;2024-01-16T20:05:47;344.40;;;165.40;;
51525;SDS011;37611;51.794;21.590;2024-01-16T20:09:49;343.20;;;161.30;;
51525;SDS011;37611;51.794;21.590;2024-01-16T20:13:51;309.40;;;150.50;;
51525;SDS011;37611;51.794;21.590;2024-01-16T20:17:53;311.20;;;145.40;;
51525;SDS011;37611;51.794;21.590;2024-01-16T20:21:55;333.60;;;165.20;;
51525;SDS011;37611;51.794;21.590;2024-01-16T20:25:57;377.40;;;174.80;;
51525;SDS011;37611;51.794;21.590;2024-01-16T20:29:58;321.50;;;150.60;;
51525;SDS011;37611;51.794;21.590;2024-01-16T20:34:00;307.50;;;151.60;;
51525;SDS011;37611;51.794;21.590;2024-01-16T20:38:02;318.90;;;151.10;;
51525;SDS011;37611;51.794;21.590;2024-01-16T20:42:05;336.20;;;171.00;;
51525;SDS011;37611;51.794;21.590;2024-01-16T20:46:08;348.30;;;175.00;;
51525;SDS011;37611;51.794;21.590;2024-01-16T20:50:10;413.80;;;217.50;;
51525;SDS011;37611;51.794;21.590;2024-01-16T20:54:12;306.50;;;150.60;;
51525;SDS011;37611;51.794;21.590;2024-01-16T20:58:16;328.00;;;164.80;;
51525;SDS011;37611;51.794;21.590;2024-01-16T21:02:18;341.10;;;160.90;;
51525;SDS011;37611;51.794;21.590;2024-01-16T21:06:20;381.60;;;191.80;;
51525;SDS011;37611;51.794;21.590;2024-01-16T21:10:22;360.20;;;180.10;;
51525;SDS011;37611;51.794;21.590;2024-01-16T21:14:24;334.50;;;169.00;;
51525;SDS011;37611;51.794;21.590;2024-01-16T21:18:26;381.20;;;182.00;;
51525;SDS011;37611;51.794;21.590;2024-01-16T21:22:29;322.90;;;164.90;;
51525;SDS011;37611;51.794;21.590;2024-01-16T21:26:31;339.90;;;168.00;;
51525;SDS011;37611;51.794;21.590;2024-01-16T21:30:33;276.90;;;131.50;;
51525;SDS011;37611;51.794;21.590;2024-01-16T21:34:36;207.10;;;105.60;;
51525;SDS011;37611;51.794;21.590;2024-01-16T21:38:38;223.80;;;110.20;;
51525;SDS011;37611;51.794;21.590;2024-01-16T21:42:41;261.70;;;129.80;;
51525;SDS011;37611;51.794;21.590;2024-01-16T21:46:43;315.60;;;155.10;;
51525;SDS011;37611;51.794;21.590;2024-01-16T21:50:45;338.60;;;166.20;;
51525;SDS011;37611;51.794;21.590;2024-01-16T21:54:46;283.40;;;139.00;;
51525;SDS011;37611;51.794;21.590;2024-01-16T21:58:48;372.60;;;182.50;;
51525;SDS011;37611;51.794;21.590;2024-01-16T22:02:51;389.50;;;205.30;;
51525;SDS011;37611;51.794;21.590;2024-01-16T22:06:58;275.00;;;133.40;;
51525;SDS011;37611;51.794;21.590;2024-01-16T22:11:00;259.80;;;126.50;;
51525;SDS011;37611;51.794;21.590;2024-01-16T22:15:02;214.10;;;106.10;;
51525;SDS011;37611;51.794;21.590;2024-01-16T22:19:04;248.40;;;110.70;;
51525;SDS011;37611;51.794;21.590;2024-01-16T22:23:06;216.70;;;101.60;;
51525;SDS011;37611;51.794;21.590;2024-01-16T22:27:07;270.30;;;117.40;;
51525;SDS011;37611;51.794;21.590;2024-01-16T22:31:10;325.00;;;139.40;;
51525;SDS011;37611;51.794;21.590;2024-01-16T22:35:13;244.10;;;112.90;;
51525;SDS011;37611;51.794;21.590;2024-01-16T22:39:15;223.40;;;104.00;;
51525;SDS011;37611;51.794;21.590;2024-01-16T22:43:16;253.00;;;118.90;;
51525;SDS011;37611;51.794;21.590;2024-01-16T22:47:18;271.90;;;120.90;;
51525;SDS011;37611;51.794;21.590;2024-01-16T22:51:22;260.20;;;109.00;;
51525;SDS011;37611;51.794;21.590;2024-01-16T22:55:28;249.30;;;109.70;;
51525;SDS011;37611;51.794;21.590;2024-01-16T22:59:30;351.70;;;142.10;;
51525;SDS011;37611;51.794;21.590;2024-01-16T23:03:33;416.20;;;187.70;;
51525;SDS011;37611;51.794;21.590;2024-01-16T23:12:12;260.30;;;129.20;;
51525;SDS011;37611;51.794;21.590;2024-01-16T23:16:14;250.10;;;119.00;;
51525;SDS011;37611;51.794;21.590;2024-01-16T23:20:15;233.60;;;112.30;;
51525;SDS011;37611;51.794;21.590;2024-01-16T23:24:17;255.10;;;119.90;;
51525;SDS011;37611;51.794;21.590;2024-01-16T23:28:20;284.20;;;133.30;;
51525;SDS011;37611;51.794;21.590;2024-01-16T23:32:22;249.40;;;112.70;;
51525;SDS011;37611;51.794;21.590;2024-01-16T23:36:25;223.30;;;98.20;;
51525;SDS011;37611;51.794;21.590;2024-01-16T23:40:27;218.60;;;93.30;;
51525;SDS011;37611;51.794;21.590;2024-01-16T23:44:29;212.80;;;89.50;;